Time;durP1;ratioP1;P1;durP2;ratioP2;P2;SDS_P1;SDS_P2;PMS_P1;PMS_P2;Temp;Humidity;BMP_temperature;BMP_pressure;BME280_temperature;BME280_humidity;BME280_pressure;Samples;Min_cycle;Max_cycle;Signal;HPM_P1;HPM_P2
2021/11/03 00:00:43;;;;;;;26.02;11.48;;;;;;;4.22;100.00;99409.34;5018107;28;20338;-63
2021/11/03 00:03:13;;;;;;;131.30;18.00;;;;;;;4.11;100.00;99406.97;5025111;28;20049;-63
2021/11/03 00:05:44;;;;;;;83.10;14.68;;;;;;;4.10;100.00;99400.88;5024475;28;20046;-62
2021/11/03 00:08:13;;;;;;;42.75;12.15;;;;;;;4.04;100.00;99406.78;5024020;28;20064;-63
2021/11/03 00:10:43;;;;;;;22.17;10.38;;;;;;;4.02;100.00;99408.72;5023816;28;20060;-63
2021/11/03 00:13:13;;;;;;;23.00;11.45;;;;;;;4.04;100.00;99409.44;5019508;28;20053;-62
2021/11/03 00:15:41;;;;;;;19.55;11.30;;;;;;;4.06;100.00;99402.16;5022256;28;20488;-64
2021/11/03 00:18:09;;;;;;;123.97;20.88;;;;;;;4.08;100.00;99404.63;5024661;28;20045;-64
2021/11/03 00:20:37;;;;;;;187.98;33.95;;;;;;;4.15;100.00;99405.69;5022488;28;20096;-64
2021/11/03 00:23:06;;;;;;;95.40;18.80;;;;;;;3.84;100.00;99403.50;5026272;28;20041;-64
2021/11/03 00:25:37;;;;;;;32.60;10.73;;;;;;;3.52;100.00;99396.16;5025022;28;20050;-64
2021/11/03 00:28:07;;;;;;;22.38;10.85;;;;;;;3.55;100.00;99395.84;5026166;28;20046;-64
2021/11/03 00:30:36;;;;;;;18.88;10.63;;;;;;;3.51;100.00;99395.31;5021748;28;20564;-62
2021/11/03 00:33:04;;;;;;;22.98;11.15;;;;;;;3.44;100.00;99399.53;5025362;28;20049;-62
2021/11/03 00:35:32;;;;;;;67.80;15.50;;;;;;;3.33;100.00;99394.50;5023070;28;20045;-62
2021/11/03 00:38:00;;;;;;;69.25;13.85;;;;;;;3.21;100.00;99396.53;5025323;28;20625;-61
2021/11/03 00:40:28;;;;;;;100.65;15.52;;;;;;;3.28;100.00;99389.69;5022845;28;20071;-62
2021/11/03 00:42:56;;;;;;;45.55;12.63;;;;;;;3.33;100.00;99398.00;5021996;28;20483;-62
2021/11/03 00:45:26;;;;;;;23.50;12.07;;;;;;;3.49;100.00;99385.88;5023210;28;20046;-62
2021/11/03 00:47:53;;;;;;;16.27;10.00;;;;;;;3.87;100.00;99389.16;5023655;28;20048;-61
2021/11/03 00:50:22;;;;;;;22.08;10.75;;;;;;;4.26;100.00;99386.09;5021744;28;20045;-63
2021/11/03 00:52:51;;;;;;;21.52;11.07;;;;;;;4.44;100.00;99394.78;5026605;28;20048;-63
2021/11/03 00:55:20;;;;;;;24.88;11.30;;;;;;;4.48;100.00;99388.19;5023290;28;20041;-62
2021/11/03 00:57:48;;;;;;;25.85;12.20;;;;;;;4.37;100.00;99392.94;5025348;28;20045;-63
2021/11/03 01:00:18;;;;;;;24.73;13.23;;;;;;;4.08;100.00;99389.63;5022337;28;20511;-63
2021/11/03 01:02:49;;;;;;;25.27;12.30;;;;;;;3.83;100.00;99393.06;5022141;28;20050;-63
2021/11/03 01:05:19;;;;;;;25.25;13.07;;;;;;;3.78;100.00;99391.75;5023675;28;20460;-63
2021/11/03 01:07:47;;;;;;;24.83;12.20;;;;;;;3.72;100.00;99387.06;5021138;28;20071;-63
2021/11/03 01:10:16;;;;;;;28.45;12.50;;;;;;;3.64;100.00;99394.09;5024786;28;20045;-63
2021/11/03 01:12:45;;;;;;;23.90;10.80;;;;;;;3.47;100.00;99387.88;5025699;28;20364;-63
2021/11/03 01:15:15;;;;;;;32.90;12.10;;;;;;;3.58;100.00;99390.25;5023605;28;20660;-63
2021/11/03 01:17:44;;;;;;;24.63;11.70;;;;;;;3.54;100.00;99388.91;5024098;28;20425;-62
2021/11/03 01:20:14;;;;;;;21.33;11.65;;;;;;;3.82;100.00;99384.34;5021568;28;20467;-62
2021/11/03 01:22:43;;;;;;;26.30;12.43;;;;;;;3.96;100.00;99388.22;5021166;28;20362;-62
2021/11/03 01:25:12;;;;;;;25.77;13.48;;;;;;;4.10;100.00;99387.66;5022881;28;20037;-63
2021/11/03 01:27:40;;;;;;;24.10;12.35;;;;;;;4.17;100.00;99394.94;5021080;28;20484;-63
2021/11/03 01:30:12;;;;;;;25.58;13.35;;;;;;;4.05;100.00;99397.03;5020843;28;20551;-62
2021/11/03 01:32:40;;;;;;;26.50;12.25;;;;;;;3.68;100.00;99403.38;5021382;28;20119;-61
2021/11/03 01:35:09;;;;;;;25.95;11.98;;;;;;;3.53;100.00;99390.72;5017653;28;20045;-61
2021/11/03 01:37:39;;;;;;;137.45;23.52;;;;;;;3.37;100.00;99393.22;5023969;28;20400;-63
2021/11/03 01:40:12;;;;;;;16.85;10.23;;;;;;;3.20;100.00;99390.41;5022143;28;20054;-63
2021/11/03 01:42:40;;;;;;;77.28;15.35;;;;;;;2.87;100.00;99389.28;5022579;28;20437;-63
2021/11/03 01:45:10;;;;;;;69.45;16.30;;;;;;;2.68;100.00;99384.91;5025570;28;20045;-62
2021/11/03 01:47:43;;;;;;;19.92;9.07;;;;;;;2.86;100.00;99379.69;5022718;28;20833;-63
2021/11/03 01:50:17;;;;;;;20.83;11.52;;;;;;;3.41;100.00;99376.09;5021810;28;20055;-63
2021/11/03 01:52:49;;;;;;;28.43;14.30;;;;;;;3.79;100.00;99376.72;5022429;28;20083;-62
2021/11/03 01:55:18;;;;;;;29.05;15.80;;;;;;;4.07;100.00;99373.91;5025011;28;20041;-62
2021/11/03 01:57:51;;;;;;;29.80;15.60;;;;;;;4.17;100.00;99379.09;5022676;28;20060;-62
2021/11/03 02:00:21;;;;;;;30.70;15.95;;;;;;;4.17;100.00;99377.28;5022413;28;20045;-62
2021/11/03 02:02:52;;;;;;;33.97;16.13;;;;;;;4.24;100.00;99385.41;5027052;28;20413;-62
2021/11/03 02:05:20;;;;;;;30.42;16.20;;;;;;;4.30;100.00;99382.16;5024149;28;20060;-62
2021/11/03 02:07:51;;;;;;;32.15;15.98;;;;;;;4.25;100.00;99381.78;5022524;28;20033;-62
2021/11/03 02:10:20;;;;;;;33.67;16.00;;;;;;;4.24;100.00;99386.25;5020853;28;20038;-61
2021/11/03 02:12:48;;;;;;;33.67;16.02;;;;;;;4.04;100.00;99385.66;5022588;28;20339;-62
2021/11/03 02:15:16;;;;;;;39.80;13.88;;;;;;;3.71;100.00;99374.84;5020631;28;20037;-62
2021/11/03 02:17:45;;;;;;;23.15;12.55;;;;;;;3.58;100.00;99377.06;5026200;28;20045;-62
2021/11/03 02:20:16;;;;;;;27.65;15.35;;;;;;;3.44;100.00;99383.72;5022009;28;20346;-64
2021/11/03 02:22:52;;;;;;;28.95;15.10;;;;;;;3.64;100.00;99383.53;5021951;28;20044;-64
2021/11/03 02:25:24;;;;;;;32.90;16.90;;;;;;;3.88;100.00;99382.88;5021719;28;20045;-63
2021/11/03 02:27:53;;;;;;;35.90;14.60;;;;;;;3.79;100.00;99390.75;5023029;28;20427;-64
2021/11/03 02:30:25;;;;;;;35.05;14.90;;;;;;;3.56;100.00;99394.88;5017254;28;20393;-64
2021/11/03 02:32:55;;;;;;;42.72;14.32;;;;;;;3.44;100.00;99392.47;5021909;28;20200;-64
2021/11/03 02:35:23;;;;;;;31.02;14.73;;;;;;;3.39;100.00;99394.72;5018051;28;20038;-64
2021/11/03 02:37:54;;;;;;;31.05;14.40;;;;;;;3.47;100.00;99404.50;5020538;28;20388;-63
2021/11/03 02:40:34;;;;;;;30.85;15.43;;;;;;;3.55;100.00;99407.22;5021908;28;20119;-64
2021/11/03 02:43:05;;;;;;;32.70;15.80;;;;;;;3.45;100.00;99398.56;5021887;28;20103;-63
2021/11/03 02:45:39;;;;;;;33.70;17.48;;;;;;;3.40;100.00;99406.09;5023057;28;20053;-64
2021/11/03 02:48:07;;;;;;;65.25;21.17;;;;;;;3.18;100.00;99405.59;5020489;28;20041;-64
2021/11/03 02:50:35;;;;;;;247.50;47.63;;;;;;;2.97;100.00;99403.22;5016567;28;20111;-64
2021/11/03 02:53:03;;;;;;;53.30;19.30;;;;;;;2.77;100.00;99402.50;5024622;28;20058;-64
2021/11/03 02:55:32;;;;;;;72.63;20.77;;;;;;;2.75;100.00;99405.28;5021167;28;20398;-64
2021/11/03 02:58:00;;;;;;;51.47;19.63;;;;;;;2.65;100.00;99403.69;5025277;28;20085;-64
2021/11/03 03:00:28;;;;;;;50.50;16.00;;;;;;;2.68;100.00;99404.22;5017949;28;20076;-64
2021/11/03 03:02:56;;;;;;;37.97;15.43;;;;;;;2.74;100.00;99403.63;5023292;28;20037;-64
2021/11/03 03:05:24;;;;;;;35.33;14.55;;;;;;;2.79;100.00;99413.72;5023374;28;20055;-64
2021/11/03 03:07:52;;;;;;;179.45;30.45;;;;;;;2.73;100.00;99409.06;5021851;28;20123;-64
2021/11/03 03:10:20;;;;;;;35.45;15.50;;;;;;;2.75;100.00;99409.72;5021746;28;20045;-64
2021/11/03 03:12:51;;;;;;;34.90;14.30;;;;;;;2.88;100.00;99404.13;5020526;28;20057;-64
2021/11/03 03:15:19;;;;;;;30.40;15.45;;;;;;;3.13;100.00;99407.00;5023243;28;20037;-64
2021/11/03 03:17:46;;;;;;;37.92;15.77;;;;;;;3.21;100.00;99409.72;5023128;28;20041;-63
2021/11/03 03:20:14;;;;;;;25.70;14.52;;;;;;;3.30;100.00;99416.72;5021469;28;20069;-64
2021/11/03 03:22:43;;;;;;;34.03;16.27;;;;;;;3.41;100.00;99411.22;5027294;28;20045;-64
2021/11/03 03:25:11;;;;;;;30.05;15.43;;;;;;;3.52;100.00;99412.81;5027651;28;20045;-64
2021/11/03 03:27:39;;;;;;;32.30;15.05;;;;;;;3.77;100.00;99413.84;5025556;28;20033;-65
2021/11/03 03:30:09;;;;;;;30.25;16.25;;;;;;;3.87;100.00;99419.03;5025097;28;20048;-64
2021/11/03 03:32:37;;;;;;;30.98;18.17;;;;;;;3.87;100.00;99420.84;5021740;28;20046;-64
2021/11/03 03:35:06;;;;;;;33.70;16.63;;;;;;;4.04;100.00;99419.16;5025089;28;20102;-64
2021/11/03 03:37:34;;;;;;;36.03;17.70;;;;;;;3.92;100.00;99421.22;5021343;28;20038;-64
2021/11/03 03:40:03;;;;;;;37.78;16.80;;;;;;;3.86;100.00;99419.19;5025474;28;20053;-64
2021/11/03 03:42:31;;;;;;;31.33;15.85;;;;;;;3.87;100.00;99415.56;5024074;28;20388;-64
2021/11/03 03:44:58;;;;;;;34.47;17.42;;;;;;;3.89;100.00;99421.53;5026842;28;20056;-64
2021/11/03 03:47:28;;;;;;;34.03;16.73;;;;;;;3.93;100.00;99420.25;5026670;28;20127;-63
2021/11/03 03:49:56;;;;;;;30.27;16.63;;;;;;;4.02;100.00;99424.59;5022597;28;20045;-64
2021/11/03 03:52:23;;;;;;;31.75;15.60;;;;;;;4.05;100.00;99434.84;5025733;28;20153;-64
2021/11/03 03:54:51;;;;;;;36.67;17.95;;;;;;;4.16;100.00;99432.94;5025023;28;20037;-64
2021/11/03 03:57:19;;;;;;;29.17;16.95;;;;;;;4.18;100.00;99436.25;5027774;28;20088;-64
2021/11/03 03:59:47;;;;;;;36.80;17.13;;;;;;;4.08;100.00;99431.91;5026552;28;20041;-63
2021/11/03 04:02:15;;;;;;;28.50;15.50;;;;;;;4.07;100.00;99434.69;5023636;28;20130;-63
2021/11/03 04:04:45;;;;;;;32.58;15.38;;;;;;;4.04;100.00;99427.91;5026838;28;20108;-64
2021/11/03 04:07:13;;;;;;;33.58;15.60;;;;;;;3.93;100.00;99426.34;5024126;28;20103;-64
2021/11/03 04:09:41;;;;;;;26.55;13.82;;;;;;;4.00;100.00;99425.72;5025595;28;20045;-64
2021/11/03 04:12:09;;;;;;;31.10;16.02;;;;;;;4.03;100.00;99430.72;5024600;28;20278;-64
2021/11/03 04:14:38;;;;;;;30.67;17.08;;;;;;;4.03;100.00;99430.72;5019575;28;20323;-63
2021/11/03 04:17:06;;;;;;;37.25;17.30;;;;;;;4.18;100.00;99433.59;5024972;28;20033;-62
2021/11/03 04:19:34;;;;;;;34.35;17.90;;;;;;;4.14;100.00;99431.28;5021873;28;20089;-64
2021/11/03 04:22:04;;;;;;;45.65;16.98;;;;;;;4.06;100.00;99435.69;5027743;28;20041;-63
2021/11/03 04:24:32;;;;;;;23.55;14.07;;;;;;;4.01;100.00;99427.38;5024369;28;20045;-64
2021/11/03 04:27:00;;;;;;;29.08;15.85;;;;;;;4.00;100.00;99426.56;5025171;28;20271;-63
2021/11/03 04:29:28;;;;;;;32.10;15.38;;;;;;;4.04;100.00;99432.34;5021116;28;20060;-64
2021/11/03 04:31:56;;;;;;;30.90;15.90;;;;;;;4.04;100.00;99430.56;5022738;28;20041;-63
2021/11/03 04:34:24;;;;;;;35.00;15.88;;;;;;;4.00;100.00;99434.50;5025782;28;20441;-64
2021/11/03 04:36:52;;;;;;;26.33;14.63;;;;;;;4.16;100.00;99436.41;5023326;28;20094;-63
2021/11/03 04:39:22;;;;;;;27.17;15.43;;;;;;;4.21;100.00;99433.28;5022804;28;20400;-64
2021/11/03 04:41:50;;;;;;;29.33;14.73;;;;;;;4.02;100.00;99434.34;5024404;28;20040;-64
2021/11/03 04:44:18;;;;;;;33.20;16.73;;;;;;;3.94;100.00;99427.16;5020616;28;20049;-64
2021/11/03 04:46:46;;;;;;;31.70;15.25;;;;;;;3.76;100.00;99420.13;5024900;28;20053;-63
2021/11/03 04:49:14;;;;;;;29.70;15.27;;;;;;;3.64;100.00;99416.03;5020775;28;20045;-64
2021/11/03 04:51:42;;;;;;;31.35;16.13;;;;;;;3.68;100.00;99416.56;5022531;28;20053;-63
2021/11/03 04:54:10;;;;;;;32.20;16.42;;;;;;;3.54;100.00;99415.31;5024919;28;20045;-62
2021/11/03 04:56:40;;;;;;;30.33;15.18;;;;;;;3.40;100.00;99417.50;5023368;28;20045;-62
2021/11/03 04:59:08;;;;;;;27.27;15.60;;;;;;;3.37;100.00;99406.41;5025427;28;20038;-64
2021/11/03 05:01:36;;;;;;;32.05;15.45;;;;;;;3.39;100.00;99410.56;5022355;28;20111;-62
2021/11/03 05:04:04;;;;;;;35.38;16.83;;;;;;;3.38;100.00;99413.34;5022554;28;20046;-64
2021/11/03 05:06:36;;;;;;;30.38;16.27;;;;;;;3.37;100.00;99415.16;5025420;28;20457;-64
2021/11/03 05:09:05;;;;;;;38.30;18.63;;;;;;;3.34;100.00;99414.63;5018416;28;20048;-64
2021/11/03 05:11:33;;;;;;;36.20;17.42;;;;;;;3.36;100.00;99413.50;5023813;28;20044;-64
2021/11/03 05:14:03;;;;;;;144.43;33.83;;;;;;;3.44;100.00;99415.38;5023014;28;20053;-64
2021/11/03 05:16:31;;;;;;;44.90;17.17;;;;;;;3.23;100.00;99418.31;5021070;28;20124;-64
2021/11/03 05:18:59;;;;;;;36.28;17.58;;;;;;;3.05;100.00;99415.69;5023352;28;20250;-64
2021/11/03 05:21:28;;;;;;;33.85;17.17;;;;;;;2.95;100.00;99410.47;5021119;28;20049;-64
2021/11/03 05:23:56;;;;;;;52.15;18.45;;;;;;;3.00;100.00;99410.00;5025087;28;20397;-64
2021/11/03 05:26:27;;;;;;;44.38;18.17;;;;;;;2.86;100.00;99412.16;5021663;28;20111;-64
2021/11/03 05:28:58;;;;;;;38.35;18.38;;;;;;;2.70;100.00;99412.81;5021321;28;20049;-64
2021/11/03 05:31:27;;;;;;;42.35;19.50;;;;;;;2.86;100.00;99414.78;5021248;28;20052;-64
2021/11/03 05:33:55;;;;;;;47.25;19.10;;;;;;;2.96;100.00;99420.00;5023785;28;20048;-64
2021/11/03 05:36:27;;;;;;;46.25;20.77;;;;;;;2.87;100.00;99432.28;5025425;28;20111;-64
2021/11/03 05:38:56;;;;;;;81.47;25.05;;;;;;;2.87;100.00;99431.47;5023681;28;20064;-64
2021/11/03 05:41:24;;;;;;;181.43;39.78;;;;;;;2.94;100.00;99424.63;5020913;28;20038;-64
2021/11/03 05:43:52;;;;;;;73.60;30.00;;;;;;;2.77;100.00;99428.06;5023380;28;20045;-64
2021/11/03 05:46:21;;;;;;;75.28;32.50;;;;;;;2.68;100.00;99427.94;5020038;28;20046;-64
2021/11/03 05:48:54;;;;;;;60.15;24.05;;;;;;;2.55;100.00;99436.19;5023201;28;20037;-65
2021/11/03 05:51:22;;;;;;;44.65;21.42;;;;;;;2.67;100.00;99438.66;5022655;28;20041;-64
2021/11/03 05:53:50;;;;;;;53.28;20.38;;;;;;;2.85;100.00;99439.53;5024512;28;20046;-65
2021/11/03 05:56:18;;;;;;;50.63;21.75;;;;;;;3.04;100.00;99430.66;5020701;28;20330;-64
2021/11/03 05:58:49;;;;;;;53.92;21.73;;;;;;;3.18;100.00;99425.88;5024260;28;20428;-64
2021/11/03 06:01:17;;;;;;;60.63;24.48;;;;;;;3.57;100.00;99425.56;5019291;28;20338;-64
2021/11/03 06:03:45;;;;;;;70.63;31.13;;;;;;;3.67;100.00;99430.75;5018749;28;20041;-64
2021/11/03 06:06:15;;;;;;;72.80;27.92;;;;;;;3.69;100.00;99434.91;5026092;28;20441;-64
2021/11/03 06:08:43;;;;;;;118.10;35.00;;;;;;;3.41;100.00;99427.06;5020965;28;20041;-64
2021/11/03 06:11:14;;;;;;;86.15;26.83;;;;;;;3.30;100.00;99434.38;5021775;28;20337;-64
2021/11/03 06:13:43;;;;;;;53.97;23.08;;;;;;;3.25;100.00;99433.03;5025158;28;20338;-64
2021/11/03 06:16:11;;;;;;;54.33;22.00;;;;;;;3.30;100.00;99422.00;5018840;28;20041;-64
2021/11/03 06:18:38;;;;;;;43.75;21.38;;;;;;;3.48;100.00;99432.56;5024270;28;20376;-64
2021/11/03 06:21:06;;;;;;;54.60;22.77;;;;;;;3.52;100.00;99417.28;5019356;28;20053;-64
2021/11/03 06:23:37;;;;;;;83.18;27.80;;;;;;;3.31;100.00;99436.88;5020622;28;20042;-64
2021/11/03 06:26:05;;;;;;;89.80;28.45;;;;;;;3.26;100.00;99428.56;5021490;28;20057;-64
2021/11/03 06:28:33;;;;;;;51.50;22.58;;;;;;;3.31;100.00;99431.59;5021942;28;20041;-64
2021/11/03 06:31:00;;;;;;;50.03;21.25;;;;;;;3.37;100.00;99432.81;5021595;28;20041;-64
2021/11/03 06:33:28;;;;;;;51.28;21.13;;;;;;;3.47;100.00;99433.56;5022193;28;20045;-64
2021/11/03 06:35:59;;;;;;;45.70;20.08;;;;;;;3.54;100.00;99420.59;5025126;28;20052;-63
2021/11/03 06:38:27;;;;;;;58.58;23.30;;;;;;;3.51;100.00;99432.28;5022867;28;20360;-64
2021/11/03 06:40:58;;;;;;;53.38;22.40;;;;;;;3.51;100.00;99431.44;5018721;28;20479;-64
2021/11/03 06:43:27;;;;;;;53.95;22.20;;;;;;;3.48;100.00;99427.31;5019231;28;20104;-64
2021/11/03 06:45:56;;;;;;;55.00;21.13;;;;;;;3.47;100.00;99425.63;5021440;28;20034;-64
2021/11/03 06:48:24;;;;;;;81.10;26.00;;;;;;;3.37;100.00;99425.69;5021920;28;20054;-64
2021/11/03 06:50:52;;;;;;;77.45;25.05;;;;;;;3.35;100.00;99422.41;5019959;28;20053;-63
2021/11/03 06:53:22;;;;;;;43.90;19.92;;;;;;;3.50;100.00;99427.16;5021526;28;20084;-64
2021/11/03 06:55:51;;;;;;;46.20;20.35;;;;;;;3.59;100.00;99424.44;5027094;28;20045;-64
2021/11/03 06:58:21;;;;;;;56.65;24.17;;;;;;;3.68;100.00;99427.16;5024703;28;20049;-64
2021/11/03 07:00:52;;;;;;;54.13;22.83;;;;;;;3.75;100.00;99425.53;5022076;28;20042;-63
2021/11/03 07:03:23;;;;;;;60.90;24.02;;;;;;;3.86;100.00;99424.47;5027044;28;20042;-64
2021/11/03 07:05:52;;;;;;;55.05;23.98;;;;;;;3.94;100.00;99424.53;5026991;28;20042;-62
2021/11/03 07:08:21;;;;;;;56.60;23.15;;;;;;;3.97;100.00;99429.53;5027168;28;20329;-64
2021/11/03 07:10:51;;;;;;;56.55;23.23;;;;;;;3.94;100.00;99438.56;5027918;28;20293;-64
2021/11/03 07:13:21;;;;;;;57.25;22.23;;;;;;;3.99;100.00;99435.47;5025879;28;20045;-64
2021/11/03 07:15:50;;;;;;;57.00;25.40;;;;;;;4.02;100.00;99432.50;5025891;28;20037;-62
2021/11/03 07:18:19;;;;;;;63.88;27.33;;;;;;;3.94;100.00;99435.09;5023960;28;20042;-64
2021/11/03 07:20:48;;;;;;;66.47;27.77;;;;;;;3.99;100.00;99446.03;5023876;28;20053;-64
2021/11/03 07:23:19;;;;;;;55.00;24.92;;;;;;;4.10;100.00;99437.84;5025363;28;20112;-64
2021/11/03 07:25:52;;;;;;;60.35;26.08;;;;;;;4.01;100.00;99444.06;5024609;28;20042;-64
2021/11/03 07:28:22;;;;;;;67.75;26.08;;;;;;;4.03;100.00;99449.22;5026394;28;20048;-64
2021/11/03 07:30:50;;;;;;;60.00;25.77;;;;;;;4.14;100.00;99454.25;5023441;28;20033;-63
2021/11/03 07:33:18;;;;;;;64.63;27.05;;;;;;;4.20;100.00;99458.09;5026594;28;20161;-64
2021/11/03 07:35:46;;;;;;;70.18;27.08;;;;;;;4.29;100.00;99462.41;5027676;28;20049;-62
2021/11/03 07:38:14;;;;;;;72.72;27.95;;;;;;;4.24;100.00;99464.69;5025595;28;20053;-64
2021/11/03 07:40:44;;;;;;;74.45;26.88;;;;;;;4.11;100.00;99473.88;5021837;28;20041;-63
2021/11/03 07:43:13;;;;;;;65.35;27.60;;;;;;;4.10;100.00;99477.50;5024093;28;20630;-64
2021/11/03 07:45:43;;;;;;;73.28;30.52;;;;;;;4.09;100.00;99478.47;5022944;28;20254;-64
2021/11/03 07:48:12;;;;;;;72.25;30.75;;;;;;;4.20;100.00;99479.22;5024485;28;20049;-64
2021/11/03 07:50:43;;;;;;;75.53;31.70;;;;;;;4.09;100.00;99477.66;5020861;28;20049;-64
2021/11/03 07:53:12;;;;;;;78.28;31.45;;;;;;;4.01;100.00;99482.84;5024699;28;20465;-64
2021/11/03 07:55:42;;;;;;;77.82;29.80;;;;;;;4.05;100.00;99489.50;5023661;28;20665;-64
2021/11/03 07:58:13;;;;;;;67.68;29.02;;;;;;;4.16;100.00;99494.53;5026266;28;20049;-64
2021/11/03 08:00:42;;;;;;;81.05;31.20;;;;;;;4.06;100.00;99494.63;5021813;28;20038;-64
2021/11/03 08:03:10;;;;;;;69.57;30.45;;;;;;;4.18;100.00;99500.47;5026402;28;20334;-64
2021/11/03 08:05:39;;;;;;;88.38;32.22;;;;;;;4.19;100.00;99502.16;5023010;28;20050;-64
2021/11/03 08:08:12;;;;;;;88.28;32.65;;;;;;;4.26;100.00;99500.56;5026468;28;20057;-64
2021/11/03 08:10:42;;;;;;;85.05;34.05;;;;;;;4.39;100.00;99500.13;5021923;28;20049;-63
2021/11/03 08:13:14;;;;;;;91.65;34.55;;;;;;;4.47;100.00;99500.19;5023849;28;20049;-64
2021/11/03 08:15:44;;;;;;;93.90;34.42;;;;;;;4.33;100.00;99495.47;5024890;28;20041;-64
2021/11/03 08:18:14;;;;;;;83.70;33.85;;;;;;;4.31;100.00;99489.53;5026224;28;20329;-64
2021/11/03 08:20:42;;;;;;;90.95;31.17;;;;;;;4.26;100.00;99495.25;5022450;28;20441;-65
2021/11/03 08:23:12;;;;;;;80.75;31.65;;;;;;;4.28;100.00;99492.47;5025542;28;20092;-64
2021/11/03 08:25:40;;;;;;;68.57;29.40;;;;;;;4.27;100.00;99491.66;5025482;28;20049;-64
2021/11/03 08:28:08;;;;;;;71.05;28.73;;;;;;;4.17;100.00;99492.72;5025257;28;20463;-64
2021/11/03 08:30:39;;;;;;;77.70;31.05;;;;;;;4.26;100.00;99491.81;5019198;28;20077;-62
2021/11/03 08:33:12;;;;;;;74.80;30.98;;;;;;;4.18;100.00;99500.47;5027128;28;20072;-64
2021/11/03 08:35:43;;;;;;;73.10;30.08;;;;;;;4.39;100.00;99494.84;5025944;28;20061;-64
2021/11/03 08:38:16;;;;;;;65.65;27.70;;;;;;;4.47;100.00;99489.63;5025048;28;20076;-63
2021/11/03 08:40:45;;;;;;;70.55;28.65;;;;;;;4.44;100.00;99491.75;5021760;28;20053;-64
2021/11/03 08:43:18;;;;;;;68.68;30.73;;;;;;;4.40;100.00;99491.22;5025350;28;20041;-64
2021/11/03 08:45:46;;;;;;;61.22;28.45;;;;;;;4.47;100.00;99492.25;5052887;28;20469;-64
2021/11/03 08:48:16;;;;;;;90.38;32.35;;;;;;;4.57;100.00;99496.63;5025773;28;20279;-64
2021/11/03 08:50:44;;;;;;;83.82;33.88;;;;;;;4.60;100.00;99493.66;5021627;28;20038;-64
2021/11/03 08:53:14;;;;;;;86.47;33.42;;;;;;;4.70;100.00;99489.09;5019953;28;20049;-63
2021/11/03 08:55:44;;;;;;;83.80;33.88;;;;;;;4.61;100.00;99482.94;5025777;28;20246;-65
2021/11/03 08:58:14;;;;;;;89.28;35.92;;;;;;;4.74;100.00;99485.16;5020248;28;20053;-65
2021/11/03 09:00:45;;;;;;;84.75;36.30;;;;;;;4.91;100.00;99482.59;5023883;28;20037;-64
2021/11/03 09:03:13;;;;;;;105.53;37.72;;;;;;;4.99;100.00;99486.09;5027155;28;20049;-65
2021/11/03 09:05:43;;;;;;;99.85;37.97;;;;;;;5.08;100.00;99483.47;5022561;28;20068;-66
2021/11/03 09:08:12;;;;;;;100.03;38.65;;;;;;;5.30;100.00;99488.19;5024122;28;20037;-63
2021/11/03 09:10:45;;;;;;;97.40;37.58;;;;;;;5.28;100.00;99495.44;5022096;28;20555;-65
2021/11/03 09:13:15;;;;;;;95.57;39.72;;;;;;;5.13;100.00;99492.59;5020570;28;20046;-65
2021/11/03 09:15:43;;;;;;;89.57;36.40;;;;;;;5.42;100.00;99499.28;5022443;28;20441;-66
2021/11/03 09:18:12;;;;;;;108.93;40.45;;;;;;;5.81;100.00;99492.56;5022635;28;20045;-66
2021/11/03 09:20:42;;;;;;;103.10;37.58;;;;;;;6.11;100.00;99495.56;5021828;28;20037;-64
2021/11/03 09:23:11;;;;;;;106.90;39.28;;;;;;;6.19;100.00;99498.22;5022066;28;20052;-64
2021/11/03 09:25:39;;;;;;;105.70;37.42;;;;;;;6.45;100.00;99492.72;5024910;28;20045;-65
2021/11/03 09:28:07;;;;;;;82.22;34.83;;;;;;;6.42;100.00;99482.47;5020570;28;20053;-65
2021/11/03 09:30:37;;;;;;;73.22;32.92;;;;;;;6.48;100.00;99487.09;5022003;28;20461;-65
2021/11/03 09:33:07;;;;;;;84.13;37.25;;;;;;;6.58;100.00;99492.22;5024754;28;20041;-65
2021/11/03 09:35:38;;;;;;;69.32;32.13;;;;;;;6.35;100.00;99486.75;5024478;28;20064;-64
2021/11/03 09:38:08;;;;;;;67.30;30.63;;;;;;;5.84;100.00;99485.13;5024065;28;20045;-64
2021/11/03 09:40:44;;;;;;;65.72;29.80;;;;;;;5.75;100.00;99491.38;5018854;28;20037;-66
2021/11/03 09:43:29;;;;;;;63.35;29.77;;;;;;;5.62;100.00;99494.53;5024014;28;20045;-65
2021/11/03 09:46:00;;;;;;;66.38;29.50;;;;;;;5.53;100.00;99487.56;5022844;28;20061;-65
2021/11/03 09:48:29;;;;;;;57.85;28.35;;;;;;;5.61;100.00;99492.03;5021838;28;20044;-65
2021/11/03 09:51:00;;;;;;;59.22;28.88;;;;;;;5.76;100.00;99490.41;5022632;28;20192;-65
2021/11/03 09:53:33;;;;;;;60.88;27.95;;;;;;;5.79;100.00;99486.59;5020227;28;20116;-67
2021/11/03 09:56:01;;;;;;;61.58;27.77;;;;;;;5.98;100.00;99488.13;5021342;28;20038;-67
2021/11/03 09:58:49;;;;;;;62.25;28.13;;;;;;;6.46;100.00;99478.44;5021095;28;20046;-67
2021/11/03 10:01:24;;;;;;;56.03;26.10;;;;;;;6.14;100.00;99474.88;5018258;28;20376;-67
2021/11/03 10:04:16;;;;;;;47.67;26.58;;;;;;;6.62;100.00;99464.34;5028393;28;20075;-67
2021/11/03 10:06:49;;;;;;;51.60;25.17;;;;;;;6.70;100.00;99474.09;5023824;28;20055;-67
2021/11/03 10:09:18;;;;;;;38.65;19.20;;;;;;;6.99;100.00;99477.97;5019283;28;20119;-67
2021/11/03 10:11:48;;;;;;;37.80;19.90;;;;;;;7.69;100.00;99469.09;5027005;28;20037;-68
2021/11/03 10:14:17;;;;;;;30.83;16.25;;;;;;;7.19;100.00;99470.41;5022245;28;20398;-68
2021/11/03 10:16:47;;;;;;;28.85;15.13;;;;;;;7.47;100.00;99473.41;5022843;28;20052;-66
2021/11/03 10:19:32;;;;;;;24.90;14.27;;;;;;;7.47;100.00;99486.69;5021195;28;20392;-66
2021/11/03 10:22:04;;;;;;;32.10;15.48;;;;;;;8.03;100.00;99483.78;5020624;28;20223;-66
2021/11/03 10:24:44;;;;;;;28.23;15.40;;;;;;;9.01;100.00;99483.81;5021603;28;20045;-66
2021/11/03 10:27:22;;;;;;;27.98;13.85;;;;;;;8.68;100.00;99488.72;5023194;28;20064;-65
2021/11/03 10:29:52;;;;;;;31.10;13.00;;;;;;;8.58;100.00;99488.97;5019975;28;20049;-66
2021/11/03 10:32:27;;;;;;;27.35;13.98;;;;;;;8.43;100.00;99483.59;5021929;28;20421;-66
2021/11/03 10:35:05;;;;;;;25.02;13.93;;;;;;;8.18;100.00;99494.47;5023284;28;20050;-66
2021/11/03 10:37:41;;;;;;;21.88;11.40;;;;;;;8.33;100.00;99485.69;5024086;28;20045;-65
2021/11/03 10:40:25;;;;;;;21.27;12.23;;;;;;;9.09;100.00;99485.56;5020661;28;20049;-65
2021/11/03 10:42:57;;;;;;;20.40;11.63;;;;;;;8.02;100.00;99483.97;5020503;28;20045;-65
2021/11/03 10:45:29;;;;;;;19.48;11.95;;;;;;;8.56;100.00;99486.50;5024103;28;20115;-67
2021/11/03 10:48:12;;;;;;;17.90;11.05;;;;;;;8.43;100.00;99489.75;5020168;28;20052;-67
2021/11/03 10:50:42;;;;;;;18.25;10.38;;;;;;;9.29;100.00;99486.63;5018966;28;20425;-68
2021/11/03 10:53:18;;;;;;;17.45;11.02;;;;;;;8.81;100.00;99488.06;5022897;28;20491;-65
2021/11/03 10:55:52;;;;;;;24.73;11.77;;;;;;;8.63;100.00;99491.06;5019610;28;20086;-65
2021/11/03 10:58:24;;;;;;;21.98;12.50;;;;;;;8.55;100.00;99492.81;5021780;28;20385;-65
2021/11/03 11:01:00;;;;;;;21.05;12.18;;;;;;;8.28;100.00;99497.69;5020835;28;20053;-65
2021/11/03 11:03:29;;;;;;;19.52;11.90;;;;;;;8.02;100.00;99497.25;5022985;28;20049;-67
2021/11/03 11:06:07;;;;;;;19.55;12.43;;;;;;;7.98;100.00;99495.97;5021400;28;20096;-67
2021/11/03 11:08:42;;;;;;;19.20;11.88;;;;;;;7.98;100.00;99503.94;5022774;28;20074;-67
2021/11/03 11:11:16;;;;;;;21.70;13.25;;;;;;;8.12;100.00;99507.66;5020163;28;20045;-67
2021/11/03 11:13:52;;;;;;;27.67;14.57;;;;;;;8.12;100.00;99510.31;5025685;28;20049;-67
2021/11/03 11:16:27;;;;;;;24.70;13.73;;;;;;;8.08;100.00;99509.84;5019943;28;20073;-67
2021/11/03 11:19:04;;;;;;;25.55;13.85;;;;;;;8.10;100.00;99513.16;5020214;28;20052;-65
2021/11/03 11:21:41;;;;;;;26.98;13.63;;;;;;;8.35;100.00;99510.28;5020739;28;20052;-67
2021/11/03 11:24:13;;;;;;;27.50;15.07;;;;;;;8.41;100.00;99510.38;5022109;28;20042;-67
2021/11/03 11:26:46;;;;;;;22.98;14.65;;;;;;;8.49;100.00;99511.34;5022713;28;20049;-67
2021/11/03 11:29:19;;;;;;;21.40;13.75;;;;;;;8.28;100.00;99511.00;5021681;28;20042;-67